ZBM weather

Bromont (Roland Desourdy) Airport
Bromont, Quebec, Canada

Public forecast

Using degrees Celsius for public forecast. Weather courtesy of forecast.io.

METAR (pilot weather report)

Closest report is Franklin County State Airport, 25.9 nm (48.0 km) SW. Retrieved 2019/04/21 00:36 UTC (0 seconds ago):

KFSO 210036Z AUTO 00000KT 10SM OVC007 08/08 A2978 RMK AO2 T00800080

TAF (pilot weather forecast)

Forecast is more than 12 hours old.

Closest forecast is MontrĂ©al / Saint-Hubert Airport, 31.6 nm (58.5 km) WNW. Retrieved 2019/04/20 00:45 UTC (24 hours ago):

TAF CYHU 202340Z 2100/2124 03010KT P6SM OVC008 TEMPO 2100/2103 2SM -DZ BR OVC004 PROB30 2101/2103 1/2SM FG VV002 FM210300 36005KT 1/2SM -DZ FG VV002 TEMPO 2103/2106 2SM BR SCT002 BKN025 BECMG 2104/2106 18015G25KT FM210600 18015G25KT 6SM BR SCT050 BECMG 2110/2112 18012KT FM211600 20012KT P6SM BKN040 BECMG 2116/2118 27008KT FM212300 32007KT P6SM BKN040 RMK FCST BASED ON AUTO OBS. NXT FCST BY 210600Z